Highland Park, Michigan
Current Conditions -  °F | °C
As of 8:53 AM on Monday 20 Oct 2014 (Local Time) from KDET Reporting Station
Overcast Overcast  
Wind Chill: 50°   Ceiling: 4800
Heat Index: 50°   Visibility: 8mi
Dew Point: 43°   Wind: 10mph
Humidity: 77%   Direction: 220°SW
Pressure: 29.87"   Gusts: NA
Location:  42.41°N, 83.09°W
Report Text: KDET 201253Z 22009KT 8SM OVC048 10/06 A2987 RMK AO2 SLP116 T01000061
Loading
Personal Weather Stations






























Interactive Weather Map
Tropical Storm Tracking
New forecast layout! Learn more

10-Day Weather Forecast

Advertisements
Track Severe Weather on mobile